Time;durP1;ratioP1;P1;durP2;ratioP2;P2;SDS_P1;SDS_P2;PMS_P1;PMS_P2;Temp;Humidity;BMP_temperature;BMP_pressure;BME280_temperature;BME280_humidity;BME280_pressure;Samples;Min_cycle;Max_cycle;Signal;HPM_P1;HPM_P2
2022/11/07 00:02:50;;;;;;;2.38;0.73;;;;;;;11.84;100.00;100012.75;8358980;28;20072;-53
2022/11/07 00:06:50;;;;;;;1.17;0.70;;;;;;;11.75;100.00;100018.28;8359360;28;20251;-53
2022/11/07 00:10:53;;;;;;;2.10;1.25;;;;;;;11.67;100.00;100008.25;8359313;28;20514;-53
2022/11/07 00:14:53;;;;;;;1.13;0.70;;;;;;;11.61;100.00;100016.13;8359227;28;20156;-55
2022/11/07 00:18:54;;;;;;;4.00;0.80;;;;;;;11.60;100.00;100031.53;8330612;28;20041;-55
2022/11/07 00:22:55;;;;;;;2.20;0.90;;;;;;;11.62;100.00;100024.13;8326066;28;20030;-54
2022/11/07 00:26:55;;;;;;;3.05;0.93;;;;;;;11.59;100.00;100023.56;8327294;28;20044;-54
2022/11/07 00:30:57;;;;;;;1.58;0.60;;;;;;;11.54;100.00;100015.94;8358335;28;20040;-55
2022/11/07 00:34:59;;;;;;;3.38;0.77;;;;;;;11.53;100.00;100027.75;8378459;28;20510;-54
2022/11/07 00:39:00;;;;;;;1.75;1.02;;;;;;;11.56;100.00;100030.13;8392986;28;20037;-55
2022/11/07 00:43:00;;;;;;;1.52;0.63;;;;;;;11.62;100.00;100037.66;8392059;28;20100;-55
2022/11/07 00:47:01;;;;;;;1.38;0.70;;;;;;;11.64;100.00;100042.91;8389302;28;20040;-53
2022/11/07 00:51:20;;;;;;;2.90;0.80;;;;;;;11.50;100.00;100035.34;8390162;28;20048;-54
2022/11/07 00:55:21;;;;;;;1.38;0.70;;;;;;;11.39;100.00;100044.56;8391901;28;20041;-55
2022/11/07 00:59:21;;;;;;;0.90;0.60;;;;;;;11.24;100.00;100043.44;8372460;28;20117;-54
2022/11/07 01:07:43;;;;;;;1.63;0.85;;;;;;;11.31;100.00;100041.78;8347837;28;20037;-54
2022/11/07 01:11:45;;;;;;;1.83;0.60;;;;;;;11.33;100.00;100042.50;8358417;28;20036;-52
2022/11/07 01:15:46;;;;;;;3.80;1.13;;;;;;;11.30;100.00;100040.09;8358708;28;20041;-54
2022/11/07 01:19:46;;;;;;;2.08;0.73;;;;;;;11.29;100.00;100038.38;8341657;28;20037;-53
2022/11/07 01:23:47;;;;;;;1.92;1.05;;;;;;;11.30;100.00;100055.47;8339330;28;20414;-53
2022/11/07 01:27:48;;;;;;;4.80;1.85;;;;;;;11.23;100.00;100049.81;8342333;28;20494;-53
2022/11/07 01:31:48;;;;;;;3.58;1.15;;;;;;;11.24;100.00;100046.13;8341965;28;20044;-55
2022/11/07 01:35:49;;;;;;;5.10;1.73;;;;;;;11.12;100.00;100035.69;8341832;28;20573;-54
2022/11/07 01:39:49;;;;;;;4.30;1.08;;;;;;;10.79;100.00;100039.09;8368788;28;20383;-54
2022/11/07 01:48:18;;;;;;;7.07;1.20;;;;;;;10.55;100.00;100037.00;8357966;27;20463;-54
2022/11/07 01:52:23;;;;;;;9.05;2.20;;;;;;;10.46;100.00;100040.59;8353112;28;20043;-51
2022/11/07 01:56:28;;;;;;;5.03;1.60;;;;;;;10.32;100.00;100051.94;8353894;28;20783;-54
2022/11/07 02:00:29;;;;;;;5.07;1.50;;;;;;;10.34;100.00;100028.28;8353576;28;20045;-54
2022/11/07 02:04:30;;;;;;;8.70;2.10;;;;;;;10.60;100.00;100040.09;8352755;28;20037;-53
2022/11/07 02:08:34;;;;;;;4.13;1.70;;;;;;;10.61;100.00;100036.38;8353459;28;20165;-55
2022/11/07 02:12:34;;;;;;;4.15;1.67;;;;;;;10.59;100.00;100033.00;8352468;28;20083;-51
2022/11/07 02:16:36;;;;;;;5.70;1.50;;;;;;;10.56;100.00;100027.91;8351923;28;20049;-51
2022/11/07 02:20:37;;;;;;;5.07;1.55;;;;;;;10.51;100.00;100027.50;8352363;28;20037;-51
2022/11/07 02:24:38;;;;;;;4.43;1.60;;;;;;;10.34;100.00;100022.91;8352500;28;20051;-51
2022/11/07 02:28:39;;;;;;;10.13;1.48;;;;;;;10.14;100.00;100032.13;8352196;28;20045;-54
2022/11/07 02:32:40;;;;;;;4.30;1.63;;;;;;;9.97;100.00;100027.47;8352525;28;20071;-53
2022/11/07 02:36:41;;;;;;;7.07;1.77;;;;;;;9.83;100.00;100028.78;8352665;28;20120;-53
2022/11/07 02:40:45;;;;;;;5.72;1.70;;;;;;;9.79;100.00;100026.56;8351927;28;20040;-54
2022/11/07 02:44:46;;;;;;;6.32;1.88;;;;;;;9.73;100.00;100019.06;8349925;28;20480;-53
2022/11/07 02:48:51;;;;;;;9.25;2.33;;;;;;;9.66;100.00;100020.63;8350812;28;20041;-53
2022/11/07 02:52:51;;;;;;;8.43;1.58;;;;;;;9.67;100.00;100028.56;8351410;28;20033;-54
2022/11/07 02:56:52;;;;;;;9.70;1.88;;;;;;;9.58;100.00;100025.94;8345191;28;20050;-54
2022/11/07 03:00:53;;;;;;;8.80;2.10;;;;;;;9.56;100.00;100025.22;8328968;28;20037;-51
2022/11/07 03:04:53;;;;;;;7.15;1.77;;;;;;;9.52;100.00;100024.63;8326649;28;20038;-49
2022/11/07 03:08:54;;;;;;;6.10;1.75;;;;;;;9.53;100.00;100020.97;8325853;28;20054;-50
2022/11/07 03:12:54;;;;;;;5.15;1.60;;;;;;;9.55;100.00;100034.31;8322861;28;20376;-48
2022/11/07 03:16:55;;;;;;;8.48;1.90;;;;;;;9.61;100.00;100033.72;8325790;28;20474;-51
2022/11/07 03:20:55;;;;;;;5.07;1.52;;;;;;;9.54;100.00;100032.59;8325016;28;20124;-49
2022/11/07 03:24:56;;;;;;;4.97;2.00;;;;;;;9.56;100.00;100033.31;8323981;28;20041;-51
2022/11/07 03:28:58;;;;;;;6.25;1.88;;;;;;;9.58;100.00;100034.84;8328000;28;20052;-49
2022/11/07 03:32:58;;;;;;;7.10;2.25;;;;;;;9.55;100.00;100034.31;8326661;28;20061;-50
2022/11/07 03:36:59;;;;;;;5.30;1.55;;;;;;;9.56;100.00;100036.00;8329127;28;20041;-50
2022/11/07 03:40:59;;;;;;;6.82;1.90;;;;;;;9.55;100.00;100031.63;8328691;28;20037;-49
2022/11/07 03:45:00;;;;;;;5.65;2.28;;;;;;;9.51;100.00;100038.28;8326077;28;20087;-51
2022/11/07 03:49:01;;;;;;;5.97;2.22;;;;;;;9.51;100.00;100033.75;8326499;28;20421;-50
2022/11/07 03:53:01;;;;;;;8.57;1.90;;;;;;;9.55;100.00;100039.72;8325440;28;20465;-51
2022/11/07 03:57:02;;;;;;;4.65;2.30;;;;;;;9.49;100.00;100051.09;8326175;28;20041;-50
2022/11/07 04:01:04;;;;;;;11.38;1.88;;;;;;;9.75;100.00;100047.59;8328118;28;20038;-49
2022/11/07 04:05:05;;;;;;;7.05;1.38;;;;;;;9.91;100.00;100063.16;8327350;28;20136;-51
2022/11/07 04:09:06;;;;;;;7.55;1.45;;;;;;;9.74;100.00;100063.94;8326078;28;20045;-49
2022/11/07 04:17:29;;;;;;;8.25;1.70;;;;;;;9.88;100.00;100068.84;8313660;28;20030;-49
2022/11/07 04:21:30;;;;;;;8.45;2.00;;;;;;;9.67;100.00;100074.44;8352704;28;20068;-53
2022/11/07 04:29:51;;;;;;;8.68;1.48;;;;;;;10.11;100.00;100072.06;8336956;28;20037;-50
2022/11/07 04:33:51;;;;;;;6.30;1.20;;;;;;;10.16;100.00;100070.66;8326251;28;20065;-49
2022/11/07 04:37:52;;;;;;;8.82;1.75;;;;;;;10.19;100.00;100062.25;8327163;28;20498;-49
2022/11/07 04:41:55;;;;;;;5.93;1.60;;;;;;;10.40;100.00;100065.53;8327283;28;20037;-49
2022/11/07 04:45:56;;;;;;;9.00;1.70;;;;;;;10.64;100.00;100063.09;8325488;28;20038;-49
2022/11/07 04:49:56;;;;;;;5.95;1.30;;;;;;;10.93;100.00;100062.91;8323324;28;20088;-49
2022/11/07 04:53:57;;;;;;;12.55;1.60;;;;;;;10.84;100.00;100058.44;8336637;28;20040;-49
2022/11/07 04:57:57;;;;;;;9.75;1.52;;;;;;;11.04;100.00;100063.53;8350443;28;20033;-49
2022/11/07 05:01:58;;;;;;;9.55;1.75;;;;;;;11.34;100.00;100068.53;8325992;28;20045;-50
2022/11/07 05:05:58;;;;;;;12.68;2.17;;;;;;;11.34;100.00;100068.53;8329220;28;20025;-52
2022/11/07 05:09:59;;;;;;;10.68;2.20;;;;;;;11.39;100.00;100078.91;8334111;28;20042;-49
2022/11/07 05:14:00;;;;;;;10.20;1.63;;;;;;;11.46;100.00;100074.53;8320453;28;20598;-49
2022/11/07 05:18:00;;;;;;;8.13;1.98;;;;;;;11.59;100.00;100078.53;8325357;28;20034;-49
2022/11/07 05:23:17;;;;;;;11.48;2.25;;;;;;;11.53;100.00;100076.47;8323725;28;20132;-49
2022/11/07 05:26:21;;;;;;;9.85;2.25;;;;;;;11.80;98.93;100076.38;8335133;28;20049;-51
2022/11/07 05:30:22;;;;;;;7.68;2.10;;;;;;;11.98;97.83;100070.06;8339829;28;20049;-49
2022/11/07 05:34:23;;;;;;;8.45;1.45;;;;;;;11.89;98.49;100070.00;8323187;28;20110;-50
2022/11/07 05:38:23;;;;;;;6.93;1.38;;;;;;;12.09;97.38;100075.19;8299045;28;20041;-50
2022/11/07 05:42:24;;;;;;;8.23;1.50;;;;;;;12.16;97.00;100070.81;8301349;28;20046;-49
2022/11/07 05:46:24;;;;;;;7.43;1.48;;;;;;;12.22;96.63;100079.16;8291597;28;20046;-50
2022/11/07 05:50:26;;;;;;;4.80;1.15;;;;;;;12.40;95.19;100074.50;8292155;28;20564;-50
2022/11/07 05:54:27;;;;;;;6.72;1.42;;;;;;;12.41;95.66;100078.06;8291694;28;20038;-49
2022/11/07 05:58:27;;;;;;;11.05;1.65;;;;;;;12.48;95.60;100074.53;8311059;28;20040;-49
2022/11/07 06:02:28;;;;;;;8.45;1.20;;;;;;;12.67;94.81;100070.69;8324615;28;20037;-53
2022/11/07 06:06:30;;;;;;;6.82;1.25;;;;;;;12.63;95.11;100074.75;8318667;28;20113;-53
2022/11/07 06:10:31;;;;;;;4.75;1.30;;;;;;;12.70;95.37;100065.81;8355031;28;20041;-50
2022/11/07 06:14:31;;;;;;;7.95;1.23;;;;;;;12.77;95.26;100076.81;8325976;28;20049;-51
2022/11/07 06:18:36;;;;;;;11.68;1.63;;;;;;;12.79;95.40;100080.22;8322043;28;20503;-52
2022/11/07 06:22:36;;;;;;;;;;;;;;;12.90;95.56;100093.50;8323423;28;20576;-51
2022/11/07 06:26:37;;;;;;;8.93;2.25;;;;;;;12.97;94.99;100086.38;8323253;28;20389;-49
2022/11/07 06:30:37;;;;;;;13.10;1.60;;;;;;;12.99;95.35;100081.66;8296502;28;20384;-50
2022/11/07 06:34:38;;;;;;;11.00;1.55;;;;;;;13.16;94.27;100088.81;8317649;28;20598;-53
2022/11/07 06:38:39;;;;;;;10.50;1.75;;;;;;;13.20;93.33;100095.59;8330197;28;20041;-51
2022/11/07 06:42:39;;;;;;;15.18;1.38;;;;;;;13.31;93.74;100088.00;8297937;28;20065;-52
2022/11/07 06:46:40;;;;;;;9.10;1.70;;;;;;;13.36;93.89;100114.66;8293502;28;20071;-50
2022/11/07 06:50:41;;;;;;;8.30;1.77;;;;;;;13.38;94.61;100109.88;8313626;28;20037;-50
2022/11/07 06:54:42;;;;;;;10.73;1.42;;;;;;;13.41;94.46;100104.09;8326321;28;20037;-53
2022/11/07 06:58:43;;;;;;;5.65;1.58;;;;;;;13.42;94.81;100116.69;8321515;28;20049;-51
2022/11/07 07:02:43;;;;;;;12.52;1.23;;;;;;;13.49;94.79;100124.00;8310978;28;20045;-50
2022/11/07 07:06:44;;;;;;;8.85;1.75;;;;;;;13.42;95.26;100128.38;8313028;28;20034;-51
2022/11/07 07:10:45;;;;;;;9.43;1.50;;;;;;;13.48;95.49;100135.84;8306455;28;20033;-53
2022/11/07 07:14:45;;;;;;;14.60;1.30;;;;;;;13.60;95.11;100141.78;8300592;28;20045;-50
2022/11/07 07:18:46;;;;;;;13.80;2.10;;;;;;;13.65;95.82;100139.44;8309602;28;20056;-50
2022/11/07 07:22:47;;;;;;;17.75;3.05;;;;;;;13.69;96.38;100152.50;8308983;28;20041;-52
2022/11/07 07:26:47;;;;;;;14.57;3.08;;;;;;;13.75;96.30;100149.13;8312796;28;20041;-54
2022/11/07 07:30:48;;;;;;;24.65;3.38;;;;;;;13.76;96.75;100155.41;8328759;28;20521;-51
2022/11/07 07:34:49;;;;;;;14.52;1.98;;;;;;;13.82;97.20;100158.28;8327944;28;20065;-50
2022/11/07 07:38:50;;;;;;;11.70;1.58;;;;;;;13.89;97.83;100155.75;8328571;28;20041;-54
2022/11/07 07:42:51;;;;;;;7.50;1.38;;;;;;;13.87;98.41;100160.47;8315923;28;20044;-51
2022/11/07 07:46:51;;;;;;;10.93;1.50;;;;;;;13.83;99.41;100164.56;8319054;28;20046;-54
2022/11/07 07:50:52;;;;;;;8.88;1.10;;;;;;;13.77;99.92;100159.81;8309881;28;20087;-51
2022/11/07 07:54:54;;;;;;;6.45;1.00;;;;;;;13.79;100.00;100158.63;8360341;28;20056;-54
2022/11/07 07:58:55;;;;;;;7.32;1.23;;;;;;;13.92;99.54;100158.13;8340713;28;20044;-54
2022/11/07 08:03:00;;;;;;;8.70;1.20;;;;;;;13.97;98.90;100161.19;8321732;28;20042;-53
2022/11/07 08:07:00;;;;;;;11.70;1.30;;;;;;;13.98;99.31;100167.44;8303034;28;20038;-52
2022/11/07 08:11:04;;;;;;;8.32;1.00;;;;;;;13.97;100.00;100165.75;8294430;28;20042;-52
2022/11/07 08:15:06;;;;;;;10.85;1.20;;;;;;;13.90;100.00;100160.16;8305003;28;20046;-52
2022/11/07 08:19:06;;;;;;;7.45;1.08;;;;;;;13.94;100.00;100172.41;8317320;28;20034;-54
2022/11/07 08:23:08;;;;;;;9.82;1.23;;;;;;;13.96;100.00;100178.50;8293872;28;20507;-54
2022/11/07 08:27:09;;;;;;;5.65;1.45;;;;;;;13.96;100.00;100181.22;8294775;28;20038;-54
2022/11/07 08:31:10;;;;;;;6.43;1.10;;;;;;;13.96;100.00;100175.78;8326723;28;20048;-52
2022/11/07 08:35:11;;;;;;;9.85;1.30;;;;;;;13.98;100.00;100181.91;8325118;28;20068;-51
2022/11/07 08:39:12;;;;;;;7.93;1.20;;;;;;;14.05;100.00;100179.31;8325696;28;20033;-53
2022/11/07 08:43:15;;;;;;;6.28;1.25;;;;;;;14.12;100.00;100178.47;8345871;28;20631;-54
2022/11/07 08:47:16;;;;;;;5.72;0.88;;;;;;;14.15;100.00;100191.72;8303990;28;20050;-55
2022/11/07 08:51:17;;;;;;;6.15;1.20;;;;;;;14.16;100.00;100198.88;8293829;28;20034;-53
2022/11/07 08:55:17;;;;;;;6.35;1.45;;;;;;;14.16;100.00;100193.44;8292589;28;20054;-55
2022/11/07 08:59:18;;;;;;;6.47;2.17;;;;;;;14.26;100.00;100210.44;8293541;28;20045;-51
2022/11/07 09:03:18;;;;;;;7.72;0.98;;;;;;;14.32;100.00;100204.31;8282557;28;20037;-52
2022/11/07 09:07:19;;;;;;;11.43;1.55;;;;;;;14.33;100.00;100213.34;8312372;28;20380;-52
2022/11/07 09:11:20;;;;;;;10.45;2.05;;;;;;;14.37;100.00;100201.94;8319525;28;20041;-52
2022/11/07 09:15:21;;;;;;;20.20;2.80;;;;;;;14.51;100.00;100208.53;8314340;28;20060;-52
2022/11/07 09:19:21;;;;;;;27.75;4.85;;;;;;;14.62;100.00;100206.31;8295058;28;20050;-51
2022/11/07 09:23:22;;;;;;;11.27;2.10;;;;;;;14.68;100.00;100194.72;8292592;28;20113;-52
2022/11/07 09:27:23;;;;;;;11.15;1.90;;;;;;;14.67;100.00;100206.63;8294218;28;20449;-51
2022/11/07 09:31:23;;;;;;;9.70;1.40;;;;;;;14.82;99.86;100210.31;8319510;28;20045;-54
2022/11/07 09:35:26;;;;;;;7.65;1.77;;;;;;;14.87;99.52;100216.09;8321102;28;20126;-52
2022/11/07 09:39:26;;;;;;;12.85;1.77;;;;;;;14.93;98.45;100223.56;8325053;28;20051;-54
2022/11/07 09:43:54;;;;;;;16.17;2.30;;;;;;;14.97;98.19;100221.31;8321700;28;20033;-51
2022/11/07 09:48:02;;;;;;;9.27;1.40;;;;;;;14.96;97.47;100231.38;8342287;28;20545;-51
2022/11/07 09:52:14;;;;;;;12.27;2.13;;;;;;;15.01;96.49;100231.69;8306334;28;20081;-51
2022/11/07 09:56:15;;;;;;;18.15;2.30;;;;;;;15.07;95.84;100236.41;8336337;28;20502;-54
2022/11/07 10:00:18;;;;;;;13.93;1.77;;;;;;;15.11;95.73;100245.97;8324600;28;20406;-54
2022/11/07 10:04:21;;;;;;;9.40;1.65;;;;;;;15.13;96.03;100246.59;8319998;28;20526;-54
2022/11/07 10:08:33;;;;;;;15.80;1.95;;;;;;;15.32;94.83;100238.03;8324885;28;20438;-54
2022/11/07 10:12:59;;;;;;;9.82;1.73;;;;;;;15.47;94.00;100240.88;8309210;28;20525;-51
2022/11/07 10:17:28;;;;;;;9.90;1.38;;;;;;;15.59;93.22;100244.91;8327396;28;20334;-51
2022/11/07 10:21:54;;;;;;;17.10;1.90;;;;;;;15.54;93.06;100242.72;8314072;28;20033;-53
2022/11/07 10:26:11;;;;;;;14.27;1.17;;;;;;;15.81;89.49;100245.94;8302436;28;20463;-54
2022/11/07 10:30:18;;;;;;;12.38;2.70;;;;;;;16.01;90.80;100236.28;8335483;28;20049;-53
2022/11/07 10:34:28;;;;;;;23.95;3.03;;;;;;;17.07;87.36;100238.66;8317977;28;20041;-51
2022/11/07 10:38:31;;;;;;;10.00;1.33;;;;;;;17.15;85.90;100235.81;8290146;28;20038;-52
2022/11/07 10:42:33;;;;;;;6.65;0.57;;;;;;;16.70;86.46;100236.00;8294143;28;20046;-53
2022/11/07 10:46:40;;;;;;;6.32;1.38;;;;;;;16.44;87.91;100235.59;8292040;28;20038;-54
2022/11/07 10:50:51;;;;;;;9.23;0.80;;;;;;;16.36;88.01;100243.81;8311860;28;20938;-53
2022/11/07 10:55:05;;;;;;;7.35;0.82;;;;;;;16.57;86.46;100243.97;8319512;28;20060;-55
2022/11/07 10:59:11;;;;;;;4.80;0.70;;;;;;;16.62;85.00;100233.38;8322578;28;20037;-51
2022/11/07 11:03:23;;;;;;;3.75;0.70;;;;;;;16.73;84.26;100232.88;8322180;28;20042;-54
2022/11/07 11:07:32;;;;;;;5.85;1.10;;;;;;;16.67;85.70;100228.19;8324080;28;20652;-54
2022/11/07 11:11:34;;;;;;;10.30;1.35;;;;;;;16.54;85.20;100230.72;8317431;28;20042;-50
2022/11/07 11:15:44;;;;;;;8.38;1.23;;;;;;;16.48;84.43;100236.91;8323298;28;20033;-51
2022/11/07 11:19:52;;;;;;;5.63;0.90;;;;;;;16.54;85.34;100225.25;8320770;28;20462;-53
2022/11/07 11:23:53;;;;;;;2.97;0.77;;;;;;;17.62;80.75;100214.38;8355701;28;20041;-54
2022/11/07 11:28:01;;;;;;;2.72;0.65;;;;;;;18.73;75.11;100207.22;8347872;28;20272;-53
2022/11/07 11:32:03;;;;;;;4.95;0.80;;;;;;;19.27;72.66;100206.28;8323175;28;20038;-54
2022/11/07 11:36:23;;;;;;;6.22;0.70;;;;;;;19.40;71.43;100211.81;8323287;28;20569;-53
2022/11/07 11:40:24;;;;;;;2.08;0.70;;;;;;;20.07;69.04;100205.47;8321756;28;20329;-54
2022/11/07 11:44:36;;;;;;;2.85;0.80;;;;;;;20.70;66.61;100211.22;8322014;28;20041;-52
2022/11/07 11:48:46;;;;;;;3.70;0.70;;;;;;;20.52;67.05;100219.25;8320054;28;20049;-54
2022/11/07 11:52:47;;;;;;;2.10;0.70;;;;;;;19.29;70.28;100220.66;8311680;28;20429;-55
2022/11/07 11:56:57;;;;;;;6.60;1.52;;;;;;;18.43;74.01;100233.09;8318132;28;20105;-51
2022/11/07 12:01:07;;;;;;;4.18;1.00;;;;;;;17.95;76.18;100234.72;8322632;28;20037;-52
2022/11/07 12:05:42;;;;;;;4.03;1.27;;;;;;;17.64;77.53;100225.97;8307177;28;20045;-51
2022/11/07 12:09:51;;;;;;;5.63;0.93;;;;;;;17.79;78.09;100221.31;8337180;28;20148;-55
2022/11/07 12:14:05;;;;;;;4.70;0.75;;;;;;;17.83;76.95;100224.47;8300247;28;20483;-52
2022/11/07 12:18:20;;;;;;;3.03;0.90;;;;;;;17.77;76.45;100215.16;8303350;28;20033;-53
2022/11/07 12:22:46;;;;;;;2.65;0.50;;;;;;;18.00;75.79;100215.84;8337129;28;20033;-55
2022/11/07 12:26:58;;;;;;;5.47;0.90;;;;;;;18.14;76.40;100216.81;8354525;28;20056;-54
2022/11/07 12:31:28;;;;;;;15.90;1.42;;;;;;;17.69;76.84;100218.03;8299521;28;20042;-53
2022/11/07 12:35:44;;;;;;;4.28;0.70;;;;;;;17.41;77.20;100219.75;8318668;28;20038;-54
2022/11/07 12:40:24;;;;;;;1.27;0.50;;;;;;;17.34;77.48;100219.69;8322010;28;20034;-55
2022/11/07 12:44:59;;;;;;;3.42;0.60;;;;;;;17.26;76.45;100208.03;8316717;28;20048;-54
2022/11/07 12:49:27;;;;;;;1.42;0.30;;;;;;;17.26;76.03;100210.75;8311971;28;20030;-54
2022/11/07 12:53:55;;;;;;;2.97;0.40;;;;;;;17.29;76.99;100204.88;8311845;28;20654;-54
2022/11/07 12:57:58;;;;;;;2.88;0.50;;;;;;;17.35;75.88;100204.13;8318496;28;20041;-51
2022/11/07 13:02:07;;;;;;;3.22;0.40;;;;;;;17.38;75.40;100198.28;8319020;28;20033;-51
2022/11/07 13:06:32;;;;;;;3.88;0.60;;;;;;;17.43;76.39;100199.44;8311994;28;20037;-52
2022/11/07 13:10:46;;;;;;;6.22;1.02;;;;;;;17.44;76.21;100203.00;8292652;28;20403;-55
2022/11/07 13:14:47;;;;;;;6.53;1.20;;;;;;;17.34;75.49;100205.16;8308062;28;20064;-53
2022/11/07 13:18:48;;;;;;;8.32;0.90;;;;;;;17.24;75.92;100201.91;8304798;28;20057;-52
2022/11/07 13:23:15;;;;;;;4.68;1.08;;;;;;;17.17;75.74;100203.72;8319020;28;20037;-52
2022/11/07 13:27:32;;;;;;;9.32;1.00;;;;;;;17.07;75.58;100200.41;8319545;28;20301;-55
2022/11/07 13:35:53;;;;;;;3.85;0.75;;;;;;;17.03;77.03;100199.09;8310838;27;20979;-54
2022/11/07 13:40:02;;;;;;;3.22;0.90;;;;;;;17.05;77.06;100200.59;8315529;28;20529;-52
2022/11/07 13:44:06;;;;;;;3.92;0.85;;;;;;;17.10;76.64;100202.75;8315311;28;20103;-53
2022/11/07 13:48:16;;;;;;;4.68;0.85;;;;;;;17.04;77.24;100200.78;8314267;28;20065;-53
2022/11/07 13:52:25;;;;;;;3.15;0.93;;;;;;;17.00;77.85;100199.47;8311650;28;20038;-54
2022/11/07 13:56:36;;;;;;;8.40;1.15;;;;;;;16.92;78.97;100205.03;8314115;28;20064;-53
2022/11/07 14:00:36;;;;;;;4.50;0.75;;;;;;;16.93;78.86;100204.00;8312986;28;20042;-51
2022/11/07 14:04:37;;;;;;;4.15;0.70;;;;;;;16.96;79.42;100198.16;8300129;28;20042;-51
2022/11/07 14:08:40;;;;;;;3.70;0.80;;;;;;;16.89;79.34;100186.28;8301765;28;20034;-51
2022/11/07 14:12:40;;;;;;;3.15;0.75;;;;;;;16.90;79.41;100193.47;8301708;28;20045;-52
2022/11/07 14:16:44;;;;;;;3.55;1.10;;;;;;;16.76;80.03;100194.28;8314814;28;20621;-50
2022/11/07 14:20:55;;;;;;;6.32;0.98;;;;;;;16.70;80.55;100198.63;8315570;28;20069;-52
2022/11/07 14:24:56;;;;;;;6.15;0.95;;;;;;;16.60;81.13;100209.00;8301317;28;20038;-55
2022/11/07 14:28:59;;;;;;;10.15;1.02;;;;;;;16.59;81.56;100195.53;8316837;28;20133;-53
2022/11/07 14:33:03;;;;;;;7.20;1.02;;;;;;;16.50;82.69;100202.09;8312355;28;20034;-53
2022/11/07 14:37:06;;;;;;;9.30;1.70;;;;;;;16.50;83.03;100196.66;8312629;28;20091;-53
2022/11/07 14:41:11;;;;;;;16.67;1.80;;;;;;;16.45;83.14;100193.63;8314030;28;20042;-53
2022/11/07 14:45:16;;;;;;;18.15;2.15;;;;;;;16.42;83.58;100191.22;8294634;28;20038;-54
2022/11/07 14:49:32;;;;;;;12.70;1.63;;;;;;;16.49;83.15;100194.94;8320682;28;20088;-55
2022/11/07 14:53:41;;;;;;;12.57;1.80;;;;;;;16.56;83.30;100190.44;8309965;28;20053;-51
2022/11/07 14:57:42;;;;;;;6.40;1.30;;;;;;;16.70;82.90;100186.84;8264631;28;20092;-51
2022/11/07 15:02:01;;;;;;;6.18;1.08;;;;;;;16.63;83.41;100180.47;8287239;28;20087;-51
2022/11/07 15:06:02;;;;;;;12.13;1.90;;;;;;;16.56;83.17;100182.25;8283792;28;20451;-52
2022/11/07 15:10:13;;;;;;;13.20;1.52;;;;;;;16.51;82.82;100174.63;8293330;28;20482;-53
2022/11/07 15:14:25;;;;;;;2.90;0.73;;;;;;;16.45;83.17;100174.50;8287999;28;20057;-54
2022/11/07 15:18:27;;;;;;;3.65;0.50;;;;;;;16.32;84.45;100177.00;8270188;28;20075;-50
2022/11/07 15:22:34;;;;;;;4.85;0.90;;;;;;;16.16;85.74;100179.91;8291179;28;20040;-52
2022/11/07 15:26:35;;;;;;;5.38;1.00;;;;;;;16.03;86.56;100183.22;8289710;28;20038;-53
2022/11/07 15:30:37;;;;;;;12.77;1.23;;;;;;;15.92;87.21;100191.00;8305576;28;20044;-54
2022/11/07 15:34:39;;;;;;;13.88;2.20;;;;;;;15.87;87.67;100190.69;8264607;28;20061;-53
2022/11/07 15:38:41;;;;;;;10.45;1.75;;;;;;;15.86;87.82;100202.63;8270978;28;20448;-53
2022/11/07 15:42:42;;;;;;;10.57;1.65;;;;;;;15.81;88.26;100213.22;8270628;28;20034;-53
2022/11/07 15:46:45;;;;;;;12.38;2.00;;;;;;;15.66;89.10;100208.59;8277457;28;20037;-50
2022/11/07 15:50:48;;;;;;;17.13;1.40;;;;;;;15.71;89.03;100214.31;8262913;28;20037;-53
2022/11/07 15:54:49;;;;;;;7.10;1.52;;;;;;;15.64;89.16;100221.53;8264907;28;20046;-55
2022/11/07 15:58:53;;;;;;;12.85;1.40;;;;;;;15.65;89.13;100208.75;8271197;28;20072;-51
2022/11/07 16:02:54;;;;;;;12.57;1.77;;;;;;;15.60;89.12;100214.75;8264395;28;20179;-53
2022/11/07 16:06:55;;;;;;;5.95;1.00;;;;;;;15.65;88.80;100223.22;8275644;28;20041;-52
2022/11/07 16:10:59;;;;;;;4.18;0.90;;;;;;;15.66;88.31;100216.75;8279437;28;20045;-51
2022/11/07 16:15:01;;;;;;;3.47;0.70;;;;;;;15.65;88.15;100231.38;8260747;28;20042;-54
2022/11/07 16:19:02;;;;;;;6.70;0.95;;;;;;;15.61;88.67;100223.75;8261960;28;20141;-51
2022/11/07 16:23:04;;;;;;;4.90;1.02;;;;;;;15.56;88.88;100231.63;8273973;28;20367;-53
2022/11/07 16:27:05;;;;;;;2.70;0.73;;;;;;;15.55;88.91;100228.06;8286012;28;20091;-51
2022/11/07 16:31:06;;;;;;;3.42;0.85;;;;;;;15.49;89.15;100228.78;8256489;28;20046;-52
2022/11/07 16:35:08;;;;;;;5.88;1.02;;;;;;;15.46;89.33;100240.03;8271665;28;20048;-50
2022/11/07 16:39:19;;;;;;;4.90;1.20;;;;;;;15.49;89.19;100234.22;8268973;28;20395;-50
2022/11/07 16:43:20;;;;;;;5.90;0.80;;;;;;;15.40;89.93;100229.84;8265609;28;20443;-51
2022/11/07 16:47:22;;;;;;;5.15;0.77;;;;;;;15.39;90.20;100236.31;8275753;28;20122;-52
2022/11/07 16:51:23;;;;;;;6.03;1.00;;;;;;;15.43;89.69;100225.91;8256524;28;20518;-51
2022/11/07 16:55:24;;;;;;;5.15;1.05;;;;;;;15.36;90.12;100239.38;8256959;28;20467;-53
2022/11/07 16:59:24;;;;;;;3.75;0.90;;;;;;;15.40;89.19;100237.19;8268289;28;20121;-51
2022/11/07 17:03:25;;;;;;;2.63;0.80;;;;;;;15.41;89.16;100245.16;8259054;28;20076;-51
2022/11/07 17:07:25;;;;;;;4.50;1.20;;;;;;;15.41;89.11;100244.31;8268434;28;20556;-52
2022/11/07 17:11:26;;;;;;;3.45;0.90;;;;;;;15.39;88.99;100244.50;8268502;28;20041;-55
2022/11/07 17:15:27;;;;;;;7.25;1.25;;;;;;;15.32;89.12;100248.94;8283102;28;20060;-50
2022/11/07 17:19:27;;;;;;;8.95;2.25;;;;;;;15.23;89.76;100244.56;8283166;28;20450;-52
2022/11/07 17:23:29;;;;;;;6.53;1.50;;;;;;;14.98;91.62;100236.66;8277505;28;20096;-52
2022/11/07 17:27:30;;;;;;;6.18;2.70;;;;;;;14.68;94.05;100249.16;8297392;28;20041;-53
2022/11/07 17:31:58;;;;;;;11.90;3.35;;;;;;;14.61;94.63;100242.69;8279672;28;20070;-51
2022/11/07 17:35:59;;;;;;;7.18;2.15;;;;;;;14.58;95.13;100245.75;8249195;28;20112;-55
2022/11/07 17:40:00;;;;;;;7.85;1.48;;;;;;;14.53;95.45;100250.88;8268456;28;20046;-50
2022/11/07 17:44:02;;;;;;;7.20;1.85;;;;;;;14.50;96.30;100259.38;8298475;28;20042;-52
2022/11/07 17:48:03;;;;;;;6.18;1.30;;;;;;;14.67;95.20;100265.66;8278839;28;20065;-51
2022/11/07 17:52:04;;;;;;;11.48;3.70;;;;;;;14.65;94.98;100271.28;8276647;28;20050;-52
2022/11/07 17:56:05;;;;;;;9.60;2.35;;;;;;;14.53;96.46;100272.66;8254706;28;20578;-51
2022/11/07 18:00:13;;;;;;;8.23;2.30;;;;;;;14.51;96.84;100268.38;8282494;28;20042;-52
2022/11/07 18:04:14;;;;;;;7.00;1.55;;;;;;;14.50;97.24;100278.44;8283981;28;20041;-53
2022/11/07 18:08:15;;;;;;;5.72;1.67;;;;;;;14.47;97.29;100267.88;8273070;28;20133;-54
2022/11/07 18:12:15;;;;;;;7.28;1.55;;;;;;;14.51;97.27;100269.22;8283812;28;20042;-51
2022/11/07 18:16:19;;;;;;;10.63;2.42;;;;;;;14.44;98.02;100268.22;8298550;28;20616;-54
2022/11/07 18:20:20;;;;;;;7.78;1.77;;;;;;;14.45;98.42;100275.34;8266147;28;20562;-50
2022/11/07 18:24:21;;;;;;;5.63;2.08;;;;;;;14.45;98.33;100264.47;8288615;28;20610;-53
2022/11/07 18:28:21;;;;;;;8.68;1.73;;;;;;;14.39;98.72;100258.91;8278990;28;20045;-51
2022/11/07 18:32:22;;;;;;;9.38;1.85;;;;;;;14.35;98.92;100262.94;8271642;28;20042;-51
2022/11/07 18:36:24;;;;;;;8.98;2.40;;;;;;;14.30;99.40;100254.47;8272471;28;20567;-50
2022/11/07 18:40:24;;;;;;;10.88;2.53;;;;;;;14.29;99.65;100248.19;8282916;28;20037;-52
2022/11/07 18:44:25;;;;;;;13.95;2.28;;;;;;;14.26;100.00;100253.97;8271700;28;20121;-51
2022/11/07 18:48:28;;;;;;;6.10;2.45;;;;;;;14.27;100.00;100261.09;8277479;28;20037;-51
2022/11/07 18:52:30;;;;;;;8.52;2.45;;;;;;;14.27;100.00;100258.38;8276337;28;20040;-50
2022/11/07 18:56:31;;;;;;;8.93;2.30;;;;;;;14.25;100.00;100263.16;8269129;28;20050;-50
2022/11/07 19:00:33;;;;;;;7.68;2.17;;;;;;;14.28;100.00;100251.94;8284218;28;20141;-51
2022/11/07 19:04:34;;;;;;;7.65;2.10;;;;;;;14.22;100.00;100257.16;8288883;28;20066;-54
2022/11/07 19:08:37;;;;;;;8.75;2.53;;;;;;;14.18;100.00;100255.81;8289445;28;20041;-51
2022/11/07 19:12:38;;;;;;;13.18;2.60;;;;;;;14.14;100.00;100277.03;8289046;28;20038;-50